sensor_id;sensor_type;location;lat;lon;timestamp;temperature;humidity
31837;DHT22;18401;49.344;6.240;2023-09-19T00:01:42;16.00;99.90
31837;DHT22;18401;49.344;6.240;2023-09-19T00:04:14;16.10;99.90
31837;DHT22;18401;49.344;6.240;2023-09-19T00:06:40;16.10;99.90
31837;DHT22;18401;49.344;6.240;2023-09-19T00:09:07;16.10;99.90
31837;DHT22;18401;49.344;6.240;2023-09-19T00:11:36;15.90;99.90
31837;DHT22;18401;49.344;6.240;2023-09-19T00:14:03;15.70;99.90
31837;DHT22;18401;49.344;6.240;2023-09-19T00:16:30;15.50;99.90
31837;DHT22;18401;49.344;6.240;2023-09-19T00:18:58;15.40;99.90
31837;DHT22;18401;49.344;6.240;2023-09-19T00:21:23;15.30;99.90
31837;DHT22;18401;49.344;6.240;2023-09-19T00:23:49;15.60;99.90
31837;DHT22;18401;49.344;6.240;2023-09-19T00:26:17;15.80;99.90
31837;DHT22;18401;49.344;6.240;2023-09-19T00:28:44;15.80;99.90
31837;DHT22;18401;49.344;6.240;2023-09-19T00:31:09;15.80;99.90
31837;DHT22;18401;49.344;6.240;2023-09-19T00:33:35;15.70;99.90
31837;DHT22;18401;49.344;6.240;2023-09-19T00:36:02;15.80;99.90
31837;DHT22;18401;49.344;6.240;2023-09-19T00:38:30;15.70;99.90
31837;DHT22;18401;49.344;6.240;2023-09-19T00:40:57;15.60;99.90
31837;DHT22;18401;49.344;6.240;2023-09-19T00:43:23;15.50;99.90
31837;DHT22;18401;49.344;6.240;2023-09-19T00:45:51;15.40;99.90
31837;DHT22;18401;49.344;6.240;2023-09-19T00:48:19;15.40;99.90
31837;DHT22;18401;49.344;6.240;2023-09-19T00:50:46;15.20;99.90
31837;DHT22;18401;49.344;6.240;2023-09-19T00:53:15;15.10;99.90
31837;DHT22;18401;49.344;6.240;2023-09-19T00:55:44;15.00;99.90
31837;DHT22;18401;49.344;6.240;2023-09-19T00:58:10;15.00;99.90
31837;DHT22;18401;49.344;6.240;2023-09-19T01:00:37;15.00;99.90
31837;DHT22;18401;49.344;6.240;2023-09-19T01:03:04;14.90;99.90
31837;DHT22;18401;49.344;6.240;2023-09-19T01:05:33;15.00;99.90
31837;DHT22;18401;49.344;6.240;2023-09-19T01:07:58;15.10;99.90
31837;DHT22;18401;49.344;6.240;2023-09-19T01:10:24;15.10;99.90
31837;DHT22;18401;49.344;6.240;2023-09-19T01:13:13;15.00;99.90
31837;DHT22;18401;49.344;6.240;2023-09-19T01:29:41;14.60;99.90
31837;DHT22;18401;49.344;6.240;2023-09-19T01:32:10;14.50;99.90
31837;DHT22;18401;49.344;6.240;2023-09-19T01:37:16;14.40;99.90
31837;DHT22;18401;49.344;6.240;2023-09-19T01:40:02;14.50;99.90
31837;DHT22;18401;49.344;6.240;2023-09-19T01:51:09;14.50;99.90
31837;DHT22;18401;49.344;6.240;2023-09-19T01:56:34;14.60;99.90
31837;DHT22;18401;49.344;6.240;2023-09-19T01:59:10;14.60;99.90
31837;DHT22;18401;49.344;6.240;2023-09-19T02:01:39;14.50;99.90
31837;DHT22;18401;49.344;6.240;2023-09-19T02:04:07;14.50;99.90
31837;DHT22;18401;49.344;6.240;2023-09-19T02:06:33;14.40;99.90
31837;DHT22;18401;49.344;6.240;2023-09-19T02:08:59;14.40;99.90
31837;DHT22;18401;49.344;6.240;2023-09-19T02:11:25;14.40;99.90
31837;DHT22;18401;49.344;6.240;2023-09-19T02:13:51;14.50;99.90
31837;DHT22;18401;49.344;6.240;2023-09-19T02:16:20;14.50;99.90
31837;DHT22;18401;49.344;6.240;2023-09-19T02:18:49;14.50;99.90
31837;DHT22;18401;49.344;6.240;2023-09-19T02:21:16;14.50;99.90
31837;DHT22;18401;49.344;6.240;2023-09-19T02:23:43;14.50;99.90
31837;DHT22;18401;49.344;6.240;2023-09-19T02:26:09;14.50;99.90
31837;DHT22;18401;49.344;6.240;2023-09-19T02:28:37;14.40;99.90
31837;DHT22;18401;49.344;6.240;2023-09-19T02:31:02;14.40;99.90
31837;DHT22;18401;49.344;6.240;2023-09-19T02:33:30;14.50;99.90
31837;DHT22;18401;49.344;6.240;2023-09-19T02:35:58;14.50;99.90
31837;DHT22;18401;49.344;6.240;2023-09-19T02:38:25;14.40;99.90
31837;DHT22;18401;49.344;6.240;2023-09-19T02:40:51;14.40;99.90
31837;DHT22;18401;49.344;6.240;2023-09-19T02:43:17;14.50;99.90
31837;DHT22;18401;49.344;6.240;2023-09-19T02:45:45;14.50;99.90
31837;DHT22;18401;49.344;6.240;2023-09-19T02:48:12;14.60;99.90
31837;DHT22;18401;49.344;6.240;2023-09-19T02:50:38;14.70;99.90
31837;DHT22;18401;49.344;6.240;2023-09-19T02:53:05;14.80;99.90
31837;DHT22;18401;49.344;6.240;2023-09-19T02:55:32;14.80;99.90
31837;DHT22;18401;49.344;6.240;2023-09-19T02:57:58;14.90;99.90
31837;DHT22;18401;49.344;6.240;2023-09-19T03:00:24;14.90;99.90
31837;DHT22;18401;49.344;6.240;2023-09-19T03:02:52;15.00;99.90
31837;DHT22;18401;49.344;6.240;2023-09-19T03:05:18;15.00;99.90
31837;DHT22;18401;49.344;6.240;2023-09-19T03:07:44;15.00;99.90
31837;DHT22;18401;49.344;6.240;2023-09-19T03:10:12;15.00;99.90
31837;DHT22;18401;49.344;6.240;2023-09-19T03:12:40;15.00;99.90
31837;DHT22;18401;49.344;6.240;2023-09-19T03:15:06;14.90;99.90
31837;DHT22;18401;49.344;6.240;2023-09-19T03:17:34;14.90;99.90
31837;DHT22;18401;49.344;6.240;2023-09-19T03:20:00;15.00;99.90
31837;DHT22;18401;49.344;6.240;2023-09-19T03:22:27;14.90;99.90
31837;DHT22;18401;49.344;6.240;2023-09-19T03:24:52;14.90;99.90
31837;DHT22;18401;49.344;6.240;2023-09-19T03:27:18;15.00;99.90
31837;DHT22;18401;49.344;6.240;2023-09-19T03:29:44;15.00;99.90
31837;DHT22;18401;49.344;6.240;2023-09-19T03:32:10;14.90;99.90
31837;DHT22;18401;49.344;6.240;2023-09-19T03:34:39;14.90;99.90
31837;DHT22;18401;49.344;6.240;2023-09-19T03:37:09;15.00;99.90
31837;DHT22;18401;49.344;6.240;2023-09-19T03:39:35;15.00;99.90
31837;DHT22;18401;49.344;6.240;2023-09-19T03:42:01;14.80;99.90
31837;DHT22;18401;49.344;6.240;2023-09-19T03:44:29;14.60;99.90
31837;DHT22;18401;49.344;6.240;2023-09-19T03:46:55;14.70;99.90
31837;DHT22;18401;49.344;6.240;2023-09-19T03:49:22;14.50;99.90
31837;DHT22;18401;49.344;6.240;2023-09-19T03:51:48;14.40;99.90
31837;DHT22;18401;49.344;6.240;2023-09-19T03:54:13;14.50;99.90
31837;DHT22;18401;49.344;6.240;2023-09-19T03:56:39;14.50;99.90
31837;DHT22;18401;49.344;6.240;2023-09-19T03:59:05;14.50;99.90
31837;DHT22;18401;49.344;6.240;2023-09-19T04:01:30;14.40;99.90
31837;DHT22;18401;49.344;6.240;2023-09-19T04:03:58;14.40;99.90
31837;DHT22;18401;49.344;6.240;2023-09-19T04:06:36;14.40;99.90
31837;DHT22;18401;49.344;6.240;2023-09-19T04:09:02;14.50;99.90
31837;DHT22;18401;49.344;6.240;2023-09-19T04:11:29;14.50;99.90
31837;DHT22;18401;49.344;6.240;2023-09-19T04:13:56;14.50;99.90
31837;DHT22;18401;49.344;6.240;2023-09-19T04:16:21;14.50;99.90
31837;DHT22;18401;49.344;6.240;2023-09-19T04:18:47;14.30;99.90
31837;DHT22;18401;49.344;6.240;2023-09-19T04:21:13;14.30;99.90
31837;DHT22;18401;49.344;6.240;2023-09-19T04:23:38;14.30;99.90
31837;DHT22;18401;49.344;6.240;2023-09-19T04:26:04;14.10;99.90
31837;DHT22;18401;49.344;6.240;2023-09-19T04:28:33;14.30;99.90
31837;DHT22;18401;49.344;6.240;2023-09-19T04:31:00;14.20;99.90
31837;DHT22;18401;49.344;6.240;2023-09-19T04:33:26;14.20;99.90
31837;DHT22;18401;49.344;6.240;2023-09-19T04:35:55;14.20;99.90
31837;DHT22;18401;49.344;6.240;2023-09-19T04:38:21;14.00;99.90
31837;DHT22;18401;49.344;6.240;2023-09-19T04:40:47;14.00;99.90
31837;DHT22;18401;49.344;6.240;2023-09-19T04:43:13;14.00;99.90
31837;DHT22;18401;49.344;6.240;2023-09-19T04:45:39;14.00;99.90
31837;DHT22;18401;49.344;6.240;2023-09-19T04:48:07;14.10;99.90
31837;DHT22;18401;49.344;6.240;2023-09-19T04:50:34;14.00;99.90
31837;DHT22;18401;49.344;6.240;2023-09-19T04:53:00;14.00;99.90
31837;DHT22;18401;49.344;6.240;2023-09-19T04:55:26;13.90;99.90
31837;DHT22;18401;49.344;6.240;2023-09-19T04:57:52;13.90;99.90
31837;DHT22;18401;49.344;6.240;2023-09-19T05:00:20;13.90;99.90
31837;DHT22;18401;49.344;6.240;2023-09-19T05:02:53;13.90;99.90
31837;DHT22;18401;49.344;6.240;2023-09-19T05:05:20;13.80;99.90
31837;DHT22;18401;49.344;6.240;2023-09-19T05:07:48;13.70;99.90
31837;DHT22;18401;49.344;6.240;2023-09-19T05:10:14;13.70;99.90
31837;DHT22;18401;49.344;6.240;2023-09-19T05:12:40;13.60;99.90
31837;DHT22;18401;49.344;6.240;2023-09-19T05:15:07;13.60;99.90
31837;DHT22;18401;49.344;6.240;2023-09-19T05:17:33;13.50;99.90
31837;DHT22;18401;49.344;6.240;2023-09-19T05:20:00;13.40;99.90
31837;DHT22;18401;49.344;6.240;2023-09-19T05:22:37;13.40;99.90
31837;DHT22;18401;49.344;6.240;2023-09-19T05:25:05;13.40;99.90
31837;DHT22;18401;49.344;6.240;2023-09-19T05:27:31;13.30;99.90
31837;DHT22;18401;49.344;6.240;2023-09-19T05:29:57;13.20;99.90
31837;DHT22;18401;49.344;6.240;2023-09-19T05:32:22;13.30;99.90
31837;DHT22;18401;49.344;6.240;2023-09-19T05:34:49;13.40;99.90
31837;DHT22;18401;49.344;6.240;2023-09-19T05:37:18;13.40;99.90
31837;DHT22;18401;49.344;6.240;2023-09-19T05:39:44;13.40;99.90
31837;DHT22;18401;49.344;6.240;2023-09-19T05:42:10;13.40;99.90
31837;DHT22;18401;49.344;6.240;2023-09-19T05:44:35;13.40;99.90
31837;DHT22;18401;49.344;6.240;2023-09-19T05:47:02;13.40;99.90
31837;DHT22;18401;49.344;6.240;2023-09-19T05:49:28;13.40;99.90
31837;DHT22;18401;49.344;6.240;2023-09-19T05:51:54;13.40;99.90
31837;DHT22;18401;49.344;6.240;2023-09-19T05:54:21;13.40;99.90
31837;DHT22;18401;49.344;6.240;2023-09-19T05:56:47;13.40;99.90
31837;DHT22;18401;49.344;6.240;2023-09-19T05:59:14;13.30;99.90
31837;DHT22;18401;49.344;6.240;2023-09-19T06:01:42;13.40;99.90
31837;DHT22;18401;49.344;6.240;2023-09-19T06:04:08;13.40;99.90
31837;DHT22;18401;49.344;6.240;2023-09-19T06:06:33;13.40;99.90
31837;DHT22;18401;49.344;6.240;2023-09-19T06:09:02;13.50;99.90
31837;DHT22;18401;49.344;6.240;2023-09-19T06:11:30;13.40;99.90
31837;DHT22;18401;49.344;6.240;2023-09-19T06:13:58;13.40;99.90
31837;DHT22;18401;49.344;6.240;2023-09-19T06:16:26;13.50;99.90
31837;DHT22;18401;49.344;6.240;2023-09-19T06:18:51;13.50;99.90
31837;DHT22;18401;49.344;6.240;2023-09-19T06:21:18;13.50;99.90
31837;DHT22;18401;49.344;6.240;2023-09-19T06:23:44;13.50;99.90
31837;DHT22;18401;49.344;6.240;2023-09-19T06:26:09;13.60;99.90
31837;DHT22;18401;49.344;6.240;2023-09-19T06:28:35;13.60;99.90
31837;DHT22;18401;49.344;6.240;2023-09-19T06:31:02;13.60;99.90
31837;DHT22;18401;49.344;6.240;2023-09-19T06:33:28;13.60;99.90
31837;DHT22;18401;49.344;6.240;2023-09-19T06:35:56;13.70;99.90
31837;DHT22;18401;49.344;6.240;2023-09-19T06:38:25;13.80;99.90
31837;DHT22;18401;49.344;6.240;2023-09-19T06:40:51;13.80;99.90
31837;DHT22;18401;49.344;6.240;2023-09-19T06:43:16;13.90;99.90
31837;DHT22;18401;49.344;6.240;2023-09-19T06:45:42;13.90;99.90
31837;DHT22;18401;49.344;6.240;2023-09-19T06:48:08;14.00;99.90
31837;DHT22;18401;49.344;6.240;2023-09-19T06:50:35;14.00;99.90
31837;DHT22;18401;49.344;6.240;2023-09-19T06:53:01;14.00;99.90
31837;DHT22;18401;49.344;6.240;2023-09-19T06:55:27;14.10;99.90
31837;DHT22;18401;49.344;6.240;2023-09-19T06:57:53;14.20;99.90
31837;DHT22;18401;49.344;6.240;2023-09-19T07:00:22;14.20;99.90
31837;DHT22;18401;49.344;6.240;2023-09-19T07:03:15;14.30;99.90
31837;DHT22;18401;49.344;6.240;2023-09-19T07:05:48;14.30;99.90
31837;DHT22;18401;49.344;6.240;2023-09-19T07:08:13;14.40;99.90
31837;DHT22;18401;49.344;6.240;2023-09-19T07:10:40;14.50;99.90
31837;DHT22;18401;49.344;6.240;2023-09-19T07:13:08;14.60;99.90
31837;DHT22;18401;49.344;6.240;2023-09-19T07:15:38;14.60;99.90
31837;DHT22;18401;49.344;6.240;2023-09-19T07:18:07;14.60;99.90
31837;DHT22;18401;49.344;6.240;2023-09-19T07:20:36;14.70;99.90
31837;DHT22;18401;49.344;6.240;2023-09-19T07:23:02;14.70;99.90
31837;DHT22;18401;49.344;6.240;2023-09-19T07:25:28;14.80;99.90
31837;DHT22;18401;49.344;6.240;2023-09-19T07:27:58;14.90;99.90
31837;DHT22;18401;49.344;6.240;2023-09-19T07:30:26;14.90;99.90
31837;DHT22;18401;49.344;6.240;2023-09-19T07:32:52;15.00;99.90
31837;DHT22;18401;49.344;6.240;2023-09-19T07:35:18;14.90;99.90
31837;DHT22;18401;49.344;6.240;2023-09-19T07:37:47;15.00;99.90
31837;DHT22;18401;49.344;6.240;2023-09-19T07:40:20;15.20;99.90
31837;DHT22;18401;49.344;6.240;2023-09-19T07:42:46;15.20;99.90
31837;DHT22;18401;49.344;6.240;2023-09-19T07:45:12;15.20;99.90
31837;DHT22;18401;49.344;6.240;2023-09-19T07:47:46;15.20;99.90
31837;DHT22;18401;49.344;6.240;2023-09-19T07:50:15;15.20;99.90
31837;DHT22;18401;49.344;6.240;2023-09-19T07:52:44;15.40;99.90
31837;DHT22;18401;49.344;6.240;2023-09-19T07:55:10;15.30;99.90
31837;DHT22;18401;49.344;6.240;2023-09-19T07:57:45;15.50;99.90
31837;DHT22;18401;49.344;6.240;2023-09-19T08:00:12;15.60;99.90
31837;DHT22;18401;49.344;6.240;2023-09-19T08:02:39;15.80;99.90
31837;DHT22;18401;49.344;6.240;2023-09-19T08:05:06;15.80;99.90
31837;DHT22;18401;49.344;6.240;2023-09-19T08:07:35;15.80;99.90
31837;DHT22;18401;49.344;6.240;2023-09-19T08:10:02;15.80;99.90
31837;DHT22;18401;49.344;6.240;2023-09-19T08:12:29;15.70;99.90
31837;DHT22;18401;49.344;6.240;2023-09-19T08:14:55;15.70;99.90
31837;DHT22;18401;49.344;6.240;2023-09-19T08:17:21;15.80;99.90
31837;DHT22;18401;49.344;6.240;2023-09-19T08:19:49;15.80;99.90
31837;DHT22;18401;49.344;6.240;2023-09-19T08:22:20;15.90;99.90
31837;DHT22;18401;49.344;6.240;2023-09-19T08:24:47;16.00;99.90
31837;DHT22;18401;49.344;6.240;2023-09-19T08:27:13;16.20;99.90
31837;DHT22;18401;49.344;6.240;2023-09-19T08:29:39;16.20;99.90
31837;DHT22;18401;49.344;6.240;2023-09-19T08:32:05;16.20;99.90
31837;DHT22;18401;49.344;6.240;2023-09-19T08:34:30;16.30;99.90
31837;DHT22;18401;49.344;6.240;2023-09-19T08:36:58;16.50;99.90
31837;DHT22;18401;49.344;6.240;2023-09-19T08:39:24;16.40;99.90
31837;DHT22;18401;49.344;6.240;2023-09-19T08:41:58;16.40;99.90
31837;DHT22;18401;49.344;6.240;2023-09-19T08:44:25;16.70;99.90
31837;DHT22;18401;49.344;6.240;2023-09-19T08:46:55;16.70;99.90
31837;DHT22;18401;49.344;6.240;2023-09-19T08:49:39;16.90;99.90
31837;DHT22;18401;49.344;6.240;2023-09-19T08:52:36;16.50;99.90
31837;DHT22;18401;49.344;6.240;2023-09-19T08:55:06;16.70;99.90
31837;DHT22;18401;49.344;6.240;2023-09-19T08:57:36;16.80;99.90
31837;DHT22;18401;49.344;6.240;2023-09-19T09:00:04;16.90;99.90
31837;DHT22;18401;49.344;6.240;2023-09-19T09:02:41;16.90;99.90
31837;DHT22;18401;49.344;6.240;2023-09-19T09:05:09;17.10;99.90
31837;DHT22;18401;49.344;6.240;2023-09-19T09:07:40;17.20;99.90
31837;DHT22;18401;49.344;6.240;2023-09-19T09:10:06;17.00;99.90
31837;DHT22;18401;49.344;6.240;2023-09-19T09:12:33;17.00;99.90
31837;DHT22;18401;49.344;6.240;2023-09-19T09:15:02;16.90;99.90
31837;DHT22;18401;49.344;6.240;2023-09-19T09:17:29;17.30;99.90
31837;DHT22;18401;49.344;6.240;2023-09-19T09:19:55;17.60;99.90
31837;DHT22;18401;49.344;6.240;2023-09-19T09:22:21;17.50;99.90
31837;DHT22;18401;49.344;6.240;2023-09-19T09:24:54;17.60;99.90
31837;DHT22;18401;49.344;6.240;2023-09-19T09:27:23;17.60;99.90
31837;DHT22;18401;49.344;6.240;2023-09-19T09:29:50;17.70;99.90
31837;DHT22;18401;49.344;6.240;2023-09-19T09:34:51;18.40;99.90
31837;DHT22;18401;49.344;6.240;2023-09-19T09:37:17;18.30;99.90
31837;DHT22;18401;49.344;6.240;2023-09-19T09:39:53;18.20;99.90
31837;DHT22;18401;49.344;6.240;2023-09-19T09:45:23;18.00;99.90
31837;DHT22;18401;49.344;6.240;2023-09-19T09:48:03;17.50;99.90
31837;DHT22;18401;49.344;6.240;2023-09-19T09:50:30;17.20;99.90
31837;DHT22;18401;49.344;6.240;2023-09-19T09:53:27;17.80;99.90
31837;DHT22;18401;49.344;6.240;2023-09-19T09:56:06;18.00;99.90
31837;DHT22;18401;49.344;6.240;2023-09-19T09:58:34;18.10;99.90
31837;DHT22;18401;49.344;6.240;2023-09-19T10:01:04;18.10;99.90
31837;DHT22;18401;49.344;6.240;2023-09-19T10:03:40;18.20;99.90
31837;DHT22;18401;49.344;6.240;2023-09-19T10:06:12;18.70;99.90
31837;DHT22;18401;49.344;6.240;2023-09-19T10:09:04;18.40;99.90
31837;DHT22;18401;49.344;6.240;2023-09-19T10:11:47;18.00;99.90
31837;DHT22;18401;49.344;6.240;2023-09-19T10:14:20;18.70;99.90
31837;DHT22;18401;49.344;6.240;2023-09-19T10:16:51;18.80;99.90
31837;DHT22;18401;49.344;6.240;2023-09-19T10:19:30;18.80;99.90
31837;DHT22;18401;49.344;6.240;2023-09-19T10:22:01;18.60;99.90
31837;DHT22;18401;49.344;6.240;2023-09-19T10:24:28;18.70;99.90
31837;DHT22;18401;49.344;6.240;2023-09-19T10:26:54;19.20;99.90
31837;DHT22;18401;49.344;6.240;2023-09-19T10:29:21;20.00;99.90
31837;DHT22;18401;49.344;6.240;2023-09-19T10:31:48;20.40;99.90
31837;DHT22;18401;49.344;6.240;2023-09-19T10:34:17;19.70;82.40
31837;DHT22;18401;49.344;6.240;2023-09-19T10:36:46;19.10;94.00
31837;DHT22;18401;49.344;6.240;2023-09-19T10:39:16;18.80;98.50
31837;DHT22;18401;49.344;6.240;2023-09-19T10:41:50;20.00;99.70
31837;DHT22;18401;49.344;6.240;2023-09-19T10:44:25;20.80;99.90
31837;DHT22;18401;49.344;6.240;2023-09-19T10:46:55;20.80;66.80
31837;DHT22;18401;49.344;6.240;2023-09-19T10:49:21;20.80;78.40
31837;DHT22;18401;49.344;6.240;2023-09-19T10:51:50;21.20;79.30
31837;DHT22;18401;49.344;6.240;2023-09-19T10:54:21;21.00;53.10
31837;DHT22;18401;49.344;6.240;2023-09-19T10:56:53;20.80;48.50
31837;DHT22;18401;49.344;6.240;2023-09-19T10:59:20;21.30;65.20
31837;DHT22;18401;49.344;6.240;2023-09-19T11:01:53;20.50;58.90
31837;DHT22;18401;49.344;6.240;2023-09-19T11:04:29;20.40;72.40
31837;DHT22;18401;49.344;6.240;2023-09-19T11:07:06;20.60;65.90
31837;DHT22;18401;49.344;6.240;2023-09-19T11:14:57;20.40;54.90
31837;DHT22;18401;49.344;6.240;2023-09-19T11:17:34;20.80;58.20
31837;DHT22;18401;49.344;6.240;2023-09-19T11:30:35;21.00;57.40
31837;DHT22;18401;49.344;6.240;2023-09-19T11:33:21;21.80;61.60
31837;DHT22;18401;49.344;6.240;2023-09-19T11:36:04;21.30;59.20
31837;DHT22;18401;49.344;6.240;2023-09-19T11:49:32;20.00;88.40
31837;DHT22;18401;49.344;6.240;2023-09-19T11:52:00;20.50;94.80
31837;DHT22;18401;49.344;6.240;2023-09-19T11:54:31;21.10;71.20
31837;DHT22;18401;49.344;6.240;2023-09-19T11:56:59;20.70;67.20
31837;DHT22;18401;49.344;6.240;2023-09-19T11:59:29;20.90;76.60
31837;DHT22;18401;49.344;6.240;2023-09-19T12:02:04;21.60;68.40
31837;DHT22;18401;49.344;6.240;2023-09-19T12:04:40;21.20;62.40
31837;DHT22;18401;49.344;6.240;2023-09-19T12:07:15;20.40;62.50
31837;DHT22;18401;49.344;6.240;2023-09-19T12:09:41;20.50;59.40
31837;DHT22;18401;49.344;6.240;2023-09-19T12:12:20;20.00;73.70
31837;DHT22;18401;49.344;6.240;2023-09-19T12:14:49;20.00;84.90
31837;DHT22;18401;49.344;6.240;2023-09-19T12:17:16;20.20;91.10
31837;DHT22;18401;49.344;6.240;2023-09-19T12:19:50;20.50;91.90
31837;DHT22;18401;49.344;6.240;2023-09-19T12:22:16;20.20;69.60
31837;DHT22;18401;49.344;6.240;2023-09-19T12:24:44;20.40;85.10
31837;DHT22;18401;49.344;6.240;2023-09-19T12:27:11;20.70;82.20
31837;DHT22;18401;49.344;6.240;2023-09-19T12:29:47;20.80;84.00
31837;DHT22;18401;49.344;6.240;2023-09-19T12:32:36;20.90;59.40
31837;DHT22;18401;49.344;6.240;2023-09-19T12:35:06;21.20;58.90
31837;DHT22;18401;49.344;6.240;2023-09-19T12:37:36;21.20;58.70
31837;DHT22;18401;49.344;6.240;2023-09-19T12:40:09;21.30;55.70
31837;DHT22;18401;49.344;6.240;2023-09-19T12:42:48;21.30;65.40
31837;DHT22;18401;49.344;6.240;2023-09-19T12:45:15;21.10;54.40
31837;DHT22;18401;49.344;6.240;2023-09-19T12:48:17;20.90;65.20
31837;DHT22;18401;49.344;6.240;2023-09-19T12:51:03;21.70;74.30
31837;DHT22;18401;49.344;6.240;2023-09-19T12:53:32;21.90;53.60
31837;DHT22;18401;49.344;6.240;2023-09-19T12:55:59;21.50;40.60
31837;DHT22;18401;49.344;6.240;2023-09-19T12:58:25;21.50;57.50
31837;DHT22;18401;49.344;6.240;2023-09-19T13:00:51;21.60;53.40
31837;DHT22;18401;49.344;6.240;2023-09-19T13:03:19;21.70;61.30
31837;DHT22;18401;49.344;6.240;2023-09-19T13:05:58;22.30;44.60
31837;DHT22;18401;49.344;6.240;2023-09-19T13:16:21;21.10;60.20
31837;DHT22;18401;49.344;6.240;2023-09-19T13:18:51;21.80;44.60
31837;DHT22;18401;49.344;6.240;2023-09-19T13:21:31;22.20;42.60
31837;DHT22;18401;49.344;6.240;2023-09-19T13:24:22;21.80;60.30
31837;DHT22;18401;49.344;6.240;2023-09-19T13:26:51;22.20;53.30
31837;DHT22;18401;49.344;6.240;2023-09-19T13:29:17;21.80;43.10
31837;DHT22;18401;49.344;6.240;2023-09-19T13:31:50;20.90;55.50
31837;DHT22;18401;49.344;6.240;2023-09-19T13:34:19;21.70;57.60
31837;DHT22;18401;49.344;6.240;2023-09-19T13:36:45;22.00;51.00
31837;DHT22;18401;49.344;6.240;2023-09-19T13:39:16;21.50;66.50
31837;DHT22;18401;49.344;6.240;2023-09-19T13:41:44;22.50;63.80
31837;DHT22;18401;49.344;6.240;2023-09-19T13:44:11;22.50;56.30
31837;DHT22;18401;49.344;6.240;2023-09-19T13:46:38;21.30;52.00
31837;DHT22;18401;49.344;6.240;2023-09-19T13:49:04;21.40;54.80
31837;DHT22;18401;49.344;6.240;2023-09-19T13:51:31;22.00;50.20
31837;DHT22;18401;49.344;6.240;2023-09-19T13:53:57;22.20;57.50
31837;DHT22;18401;49.344;6.240;2023-09-19T13:56:22;22.50;61.70
31837;DHT22;18401;49.344;6.240;2023-09-19T13:58:49;22.10;48.50
31837;DHT22;18401;49.344;6.240;2023-09-19T14:01:15;22.20;41.90
31837;DHT22;18401;49.344;6.240;2023-09-19T14:03:41;21.60;40.90
31837;DHT22;18401;49.344;6.240;2023-09-19T14:06:12;22.30;68.20
31837;DHT22;18401;49.344;6.240;2023-09-19T14:08:38;22.40;54.20
31837;DHT22;18401;49.344;6.240;2023-09-19T14:11:07;21.80;59.30
31837;DHT22;18401;49.344;6.240;2023-09-19T14:13:33;22.00;67.70
31837;DHT22;18401;49.344;6.240;2023-09-19T14:16:03;21.20;64.10
31837;DHT22;18401;49.344;6.240;2023-09-19T14:18:31;20.60;77.00
31837;DHT22;18401;49.344;6.240;2023-09-19T14:20:56;20.40;90.30
31837;DHT22;18401;49.344;6.240;2023-09-19T14:23:22;21.10;69.30
31837;DHT22;18401;49.344;6.240;2023-09-19T14:25:50;21.40;66.70
31837;DHT22;18401;49.344;6.240;2023-09-19T14:28:15;21.70;59.50
31837;DHT22;18401;49.344;6.240;2023-09-19T14:30:41;21.60;71.30
31837;DHT22;18401;49.344;6.240;2023-09-19T14:33:06;20.30;78.40
31837;DHT22;18401;49.344;6.240;2023-09-19T14:35:32;21.10;81.90
31837;DHT22;18401;49.344;6.240;2023-09-19T14:37:58;20.90;71.00
31837;DHT22;18401;49.344;6.240;2023-09-19T14:40:24;20.90;69.30
31837;DHT22;18401;49.344;6.240;2023-09-19T14:42:51;20.60;90.90
31837;DHT22;18401;49.344;6.240;2023-09-19T14:45:17;20.80;78.20
31837;DHT22;18401;49.344;6.240;2023-09-19T14:47:45;20.10;91.50
31837;DHT22;18401;49.344;6.240;2023-09-19T14:50:11;20.10;99.90
31837;DHT22;18401;49.344;6.240;2023-09-19T14:52:38;20.00;91.80
31837;DHT22;18401;49.344;6.240;2023-09-19T14:55:05;20.40;93.50
31837;DHT22;18401;49.344;6.240;2023-09-19T14:57:31;20.10;89.90
31837;DHT22;18401;49.344;6.240;2023-09-19T14:59:57;20.80;92.80
31837;DHT22;18401;49.344;6.240;2023-09-19T15:02:24;20.10;91.50
31837;DHT22;18401;49.344;6.240;2023-09-19T15:04:51;20.40;99.90
31837;DHT22;18401;49.344;6.240;2023-09-19T15:07:17;20.80;99.90
31837;DHT22;18401;49.344;6.240;2023-09-19T15:09:43;20.40;90.00
31837;DHT22;18401;49.344;6.240;2023-09-19T15:12:09;20.00;96.30
31837;DHT22;18401;49.344;6.240;2023-09-19T15:14:40;21.00;95.30
31837;DHT22;18401;49.344;6.240;2023-09-19T15:17:07;20.90;87.20
31837;DHT22;18401;49.344;6.240;2023-09-19T15:19:33;19.80;98.00
31837;DHT22;18401;49.344;6.240;2023-09-19T15:21:58;20.10;99.90
31837;DHT22;18401;49.344;6.240;2023-09-19T15:24:25;20.50;99.90
31837;DHT22;18401;49.344;6.240;2023-09-19T15:26:52;20.20;99.90
31837;DHT22;18401;49.344;6.240;2023-09-19T15:29:17;20.40;99.90
31837;DHT22;18401;49.344;6.240;2023-09-19T15:31:45;21.10;97.70
31837;DHT22;18401;49.344;6.240;2023-09-19T15:34:11;20.90;91.10
31837;DHT22;18401;49.344;6.240;2023-09-19T15:36:39;20.50;92.60
31837;DHT22;18401;49.344;6.240;2023-09-19T15:39:07;20.60;84.50
31837;DHT22;18401;49.344;6.240;2023-09-19T15:41:40;19.90;92.40
31837;DHT22;18401;49.344;6.240;2023-09-19T15:44:16;19.70;99.20
31837;DHT22;18401;49.344;6.240;2023-09-19T15:46:43;19.50;99.90
31837;DHT22;18401;49.344;6.240;2023-09-19T15:49:09;19.20;99.90
31837;DHT22;18401;49.344;6.240;2023-09-19T15:51:35;19.10;99.90
31837;DHT22;18401;49.344;6.240;2023-09-19T15:54:02;19.00;99.90
31837;DHT22;18401;49.344;6.240;2023-09-19T15:56:33;19.00;99.90
31837;DHT22;18401;49.344;6.240;2023-09-19T15:59:00;19.00;99.90
31837;DHT22;18401;49.344;6.240;2023-09-19T16:01:27;19.10;99.90
31837;DHT22;18401;49.344;6.240;2023-09-19T16:03:54;19.20;99.90
31837;DHT22;18401;49.344;6.240;2023-09-19T16:06:23;19.20;99.90
31837;DHT22;18401;49.344;6.240;2023-09-19T16:08:50;19.20;99.90
31837;DHT22;18401;49.344;6.240;2023-09-19T16:11:17;19.10;99.90
31837;DHT22;18401;49.344;6.240;2023-09-19T16:13:44;19.20;99.90
31837;DHT22;18401;49.344;6.240;2023-09-19T16:16:13;19.20;99.90
31837;DHT22;18401;49.344;6.240;2023-09-19T16:18:44;19.10;99.90
31837;DHT22;18401;49.344;6.240;2023-09-19T16:21:10;19.00;99.90
31837;DHT22;18401;49.344;6.240;2023-09-19T16:23:36;19.20;99.90
31837;DHT22;18401;49.344;6.240;2023-09-19T16:26:03;19.40;99.90
31837;DHT22;18401;49.344;6.240;2023-09-19T16:28:30;19.40;99.90
31837;DHT22;18401;49.344;6.240;2023-09-19T16:31:00;19.20;99.90
31837;DHT22;18401;49.344;6.240;2023-09-19T16:33:25;19.10;99.90
31837;DHT22;18401;49.344;6.240;2023-09-19T16:35:52;19.40;99.90
31837;DHT22;18401;49.344;6.240;2023-09-19T16:38:18;19.30;99.90
31837;DHT22;18401;49.344;6.240;2023-09-19T16:40:55;19.20;99.90
31837;DHT22;18401;49.344;6.240;2023-09-19T16:43:24;19.20;99.90
31837;DHT22;18401;49.344;6.240;2023-09-19T16:45:56;19.20;99.90
31837;DHT22;18401;49.344;6.240;2023-09-19T16:48:23;19.00;99.90